sensor_id;sensor_type;location;lat;lon;timestamp;pressure;altitude;pressure_sealevel;temperature
74060;BMP280;62414;53.436;8.828;2022-12-20T00:01:28;100866.16;;;8.58
74060;BMP280;62414;53.436;8.828;2022-12-20T00:03:56;100873.47;;;8.58
74060;BMP280;62414;53.436;8.828;2022-12-20T00:06:22;100879.56;;;8.62
74060;BMP280;62414;53.436;8.828;2022-12-20T00:08:52;100865.28;;;8.65
74060;BMP280;62414;53.436;8.828;2022-12-20T00:11:17;100867.53;;;8.66
74060;BMP280;62414;53.436;8.828;2022-12-20T00:13:45;100864.06;;;8.66
74060;BMP280;62414;53.436;8.828;2022-12-20T00:16:12;100865.53;;;8.71
74060;BMP280;62414;53.436;8.828;2022-12-20T00:18:40;100862.72;;;8.78
74060;BMP280;62414;53.436;8.828;2022-12-20T00:21:07;100858.94;;;8.75
74060;BMP280;62414;53.436;8.828;2022-12-20T00:23:34;100852.31;;;8.76
74060;BMP280;62414;53.436;8.828;2022-12-20T00:26:01;100843.53;;;8.72
74060;BMP280;62414;53.436;8.828;2022-12-20T00:28:26;100842.38;;;8.73
74060;BMP280;62414;53.436;8.828;2022-12-20T00:30:52;100850.75;;;8.79
74060;BMP280;62414;53.436;8.828;2022-12-20T00:33:18;100846.47;;;8.81
74060;BMP280;62414;53.436;8.828;2022-12-20T00:35:45;100850.72;;;8.82
74060;BMP280;62414;53.436;8.828;2022-12-20T00:38:10;100844.47;;;8.85
74060;BMP280;62414;53.436;8.828;2022-12-20T00:40:35;100842.50;;;8.86
74060;BMP280;62414;53.436;8.828;2022-12-20T00:43:01;100844.81;;;8.87
74060;BMP280;62414;53.436;8.828;2022-12-20T00:45:26;100843.59;;;8.92
74060;BMP280;62414;53.436;8.828;2022-12-20T00:47:52;100838.53;;;8.94
74060;BMP280;62414;53.436;8.828;2022-12-20T00:50:17;100842.69;;;8.99
74060;BMP280;62414;53.436;8.828;2022-12-20T00:52:45;100849.66;;;8.96
74060;BMP280;62414;53.436;8.828;2022-12-20T00:55:10;100849.75;;;8.92
74060;BMP280;62414;53.436;8.828;2022-12-20T00:57:36;100845.50;;;8.91
74060;BMP280;62414;53.436;8.828;2022-12-20T01:00:02;100841.53;;;8.96
74060;BMP280;62414;53.436;8.828;2022-12-20T01:02:28;100842.25;;;9.00
74060;BMP280;62414;53.436;8.828;2022-12-20T01:04:53;100841.44;;;9.03
74060;BMP280;62414;53.436;8.828;2022-12-20T01:07:18;100834.91;;;9.01
74060;BMP280;62414;53.436;8.828;2022-12-20T01:09:45;100841.03;;;9.05
74060;BMP280;62414;53.436;8.828;2022-12-20T01:12:12;100838.75;;;9.03
74060;BMP280;62414;53.436;8.828;2022-12-20T01:14:37;100845.31;;;9.02
74060;BMP280;62414;53.436;8.828;2022-12-20T01:17:02;100837.22;;;9.02
74060;BMP280;62414;53.436;8.828;2022-12-20T01:19:28;100830.31;;;9.01
74060;BMP280;62414;53.436;8.828;2022-12-20T01:21:53;100828.41;;;8.98
74060;BMP280;62414;53.436;8.828;2022-12-20T01:24:19;100830.63;;;9.03
74060;BMP280;62414;53.436;8.828;2022-12-20T01:26:46;100832.59;;;9.03
74060;BMP280;62414;53.436;8.828;2022-12-20T01:29:12;100837.97;;;9.03
74060;BMP280;62414;53.436;8.828;2022-12-20T01:31:38;100833.75;;;9.02
74060;BMP280;62414;53.436;8.828;2022-12-20T01:34:04;100834.78;;;9.08
74060;BMP280;62414;53.436;8.828;2022-12-20T01:36:31;100837.56;;;9.04
74060;BMP280;62414;53.436;8.828;2022-12-20T01:38:57;100833.69;;;9.05
74060;BMP280;62414;53.436;8.828;2022-12-20T01:41:23;100829.38;;;9.08
74060;BMP280;62414;53.436;8.828;2022-12-20T01:43:52;100842.06;;;9.11
74060;BMP280;62414;53.436;8.828;2022-12-20T01:46:19;100840.13;;;9.11
74060;BMP280;62414;53.436;8.828;2022-12-20T01:48:48;100839.38;;;9.11
74060;BMP280;62414;53.436;8.828;2022-12-20T01:51:15;100835.81;;;9.14
74060;BMP280;62414;53.436;8.828;2022-12-20T01:53:42;100840.81;;;9.15
74060;BMP280;62414;53.436;8.828;2022-12-20T01:56:08;100838.59;;;9.10
74060;BMP280;62414;53.436;8.828;2022-12-20T01:58:36;100832.03;;;9.11
74060;BMP280;62414;53.436;8.828;2022-12-20T02:01:05;100826.88;;;9.17
74060;BMP280;62414;53.436;8.828;2022-12-20T02:03:31;100814.47;;;9.19
74060;BMP280;62414;53.436;8.828;2022-12-20T02:05:56;100821.56;;;9.13
74060;BMP280;62414;53.436;8.828;2022-12-20T02:08:22;100816.41;;;9.19
74060;BMP280;62414;53.436;8.828;2022-12-20T02:10:59;100810.13;;;9.26
74060;BMP280;62414;53.436;8.828;2022-12-20T02:13:37;100812.34;;;9.31
74060;BMP280;62414;53.436;8.828;2022-12-20T02:16:08;100803.72;;;9.36
74060;BMP280;62414;53.436;8.828;2022-12-20T02:18:41;100798.66;;;9.38
74060;BMP280;62414;53.436;8.828;2022-12-20T02:21:24;100805.94;;;9.41
74060;BMP280;62414;53.436;8.828;2022-12-20T02:24:09;100794.78;;;9.39
74060;BMP280;62414;53.436;8.828;2022-12-20T02:26:55;100797.75;;;9.44
74060;BMP280;62414;53.436;8.828;2022-12-20T02:29:32;100790.34;;;9.48
74060;BMP280;62414;53.436;8.828;2022-12-20T02:32:03;100779.13;;;9.50
74060;BMP280;62414;53.436;8.828;2022-12-20T02:34:34;100784.53;;;9.50
74060;BMP280;62414;53.436;8.828;2022-12-20T02:37:01;100776.31;;;9.54
74060;BMP280;62414;53.436;8.828;2022-12-20T02:39:28;100778.19;;;9.57
74060;BMP280;62414;53.436;8.828;2022-12-20T02:41:56;100792.38;;;9.61
74060;BMP280;62414;53.436;8.828;2022-12-20T02:44:26;100776.41;;;9.66
74060;BMP280;62414;53.436;8.828;2022-12-20T02:46:52;100781.81;;;9.66
74060;BMP280;62414;53.436;8.828;2022-12-20T02:49:23;100795.94;;;9.74
74060;BMP280;62414;53.436;8.828;2022-12-20T02:51:52;100790.88;;;9.76
74060;BMP280;62414;53.436;8.828;2022-12-20T02:54:19;100789.19;;;9.82
74060;BMP280;62414;53.436;8.828;2022-12-20T02:56:50;100789.47;;;9.88
74060;BMP280;62414;53.436;8.828;2022-12-20T02:59:20;100781.66;;;9.90
74060;BMP280;62414;53.436;8.828;2022-12-20T03:01:49;100788.94;;;9.93
74060;BMP280;62414;53.436;8.828;2022-12-20T03:04:16;100784.19;;;9.97
74060;BMP280;62414;53.436;8.828;2022-12-20T03:06:56;100786.56;;;9.95
74060;BMP280;62414;53.436;8.828;2022-12-20T03:09:22;100770.44;;;9.91
74060;BMP280;62414;53.436;8.828;2022-12-20T03:11:47;100772.03;;;9.89
74060;BMP280;62414;53.436;8.828;2022-12-20T03:14:13;100763.47;;;9.90
74060;BMP280;62414;53.436;8.828;2022-12-20T03:16:39;100770.34;;;9.95
74060;BMP280;62414;53.436;8.828;2022-12-20T03:19:05;100753.25;;;9.98
74060;BMP280;62414;53.436;8.828;2022-12-20T03:21:31;100759.09;;;9.96
74060;BMP280;62414;53.436;8.828;2022-12-20T03:23:58;100765.69;;;9.95
74060;BMP280;62414;53.436;8.828;2022-12-20T03:26:23;100767.38;;;9.89
74060;BMP280;62414;53.436;8.828;2022-12-20T03:28:53;100771.59;;;9.90
74060;BMP280;62414;53.436;8.828;2022-12-20T03:31:21;100775.06;;;9.91
74060;BMP280;62414;53.436;8.828;2022-12-20T03:33:50;100782.78;;;9.92
74060;BMP280;62414;53.436;8.828;2022-12-20T03:36:16;100771.94;;;9.92
74060;BMP280;62414;53.436;8.828;2022-12-20T03:38:41;100777.75;;;9.91
74060;BMP280;62414;53.436;8.828;2022-12-20T03:41:08;100774.31;;;9.90
74060;BMP280;62414;53.436;8.828;2022-12-20T03:43:34;100770.34;;;9.95
74060;BMP280;62414;53.436;8.828;2022-12-20T03:45:59;100775.00;;;9.94
74060;BMP280;62414;53.436;8.828;2022-12-20T03:48:28;100776.50;;;9.95
74060;BMP280;62414;53.436;8.828;2022-12-20T03:50:54;100775.31;;;9.96
74060;BMP280;62414;53.436;8.828;2022-12-20T03:53:19;100762.22;;;9.95
74060;BMP280;62414;53.436;8.828;2022-12-20T03:55:45;100774.22;;;9.94
74060;BMP280;62414;53.436;8.828;2022-12-20T03:58:12;100771.59;;;9.90
74060;BMP280;62414;53.436;8.828;2022-12-20T04:00:37;100762.81;;;9.86
74060;BMP280;62414;53.436;8.828;2022-12-20T04:03:26;100755.38;;;9.74
74060;BMP280;62414;53.436;8.828;2022-12-20T04:05:51;100761.22;;;9.72
74060;BMP280;62414;53.436;8.828;2022-12-20T04:08:17;100756.75;;;9.66
74060;BMP280;62414;53.436;8.828;2022-12-20T04:10:42;100750.63;;;9.62
74060;BMP280;62414;53.436;8.828;2022-12-20T04:13:08;100741.59;;;9.52
74060;BMP280;62414;53.436;8.828;2022-12-20T04:15:35;100737.47;;;9.47
74060;BMP280;62414;53.436;8.828;2022-12-20T04:18:01;100733.66;;;9.45
74060;BMP280;62414;53.436;8.828;2022-12-20T04:20:26;100734.53;;;9.42
74060;BMP280;62414;53.436;8.828;2022-12-20T04:23:04;100730.03;;;9.35
74060;BMP280;62414;53.436;8.828;2022-12-20T04:25:29;100730.13;;;9.32
74060;BMP280;62414;53.436;8.828;2022-12-20T04:27:55;100732.50;;;9.30
74060;BMP280;62414;53.436;8.828;2022-12-20T04:30:20;100726.28;;;9.29
74060;BMP280;62414;53.436;8.828;2022-12-20T04:32:48;100727.09;;;9.30
74060;BMP280;62414;53.436;8.828;2022-12-20T04:35:13;100727.47;;;9.28
74060;BMP280;62414;53.436;8.828;2022-12-20T04:37:41;100725.72;;;9.21
74060;BMP280;62414;53.436;8.828;2022-12-20T04:40:08;100719.56;;;9.21
74060;BMP280;62414;53.436;8.828;2022-12-20T04:42:42;100718.81;;;9.20
74060;BMP280;62414;53.436;8.828;2022-12-20T04:45:11;100717.19;;;9.23
74060;BMP280;62414;53.436;8.828;2022-12-20T04:47:36;100726.06;;;9.23
74060;BMP280;62414;53.436;8.828;2022-12-20T04:50:06;100718.03;;;9.20
74060;BMP280;62414;53.436;8.828;2022-12-20T04:52:32;100714.97;;;9.18
74060;BMP280;62414;53.436;8.828;2022-12-20T04:54:57;100711.50;;;9.17
74060;BMP280;62414;53.436;8.828;2022-12-20T04:57:27;100712.28;;;9.18
74060;BMP280;62414;53.436;8.828;2022-12-20T04:59:53;100707.63;;;9.18
74060;BMP280;62414;53.436;8.828;2022-12-20T05:02:18;100696.44;;;9.20
74060;BMP280;62414;53.436;8.828;2022-12-20T05:04:49;100697.53;;;9.22
74060;BMP280;62414;53.436;8.828;2022-12-20T05:07:16;100704.88;;;9.22
74060;BMP280;62414;53.436;8.828;2022-12-20T05:09:48;100698.72;;;9.21
74060;BMP280;62414;53.436;8.828;2022-12-20T05:12:14;100691.78;;;9.20
74060;BMP280;62414;53.436;8.828;2022-12-20T05:14:39;100684.50;;;9.17
74060;BMP280;62414;53.436;8.828;2022-12-20T05:17:05;100684.59;;;9.14
74060;BMP280;62414;53.436;8.828;2022-12-20T05:19:30;100682.66;;;9.14
74060;BMP280;62414;53.436;8.828;2022-12-20T05:21:56;100689.25;;;9.13
74060;BMP280;62414;53.436;8.828;2022-12-20T05:24:23;100682.16;;;9.19
74060;BMP280;62414;53.436;8.828;2022-12-20T05:26:57;100681.00;;;9.20
74060;BMP280;62414;53.436;8.828;2022-12-20T05:29:23;100668.56;;;9.23
74060;BMP280;62414;53.436;8.828;2022-12-20T05:31:49;100667.47;;;9.20
74060;BMP280;62414;53.436;8.828;2022-12-20T05:34:15;100663.16;;;9.23
74060;BMP280;62414;53.436;8.828;2022-12-20T05:36:44;100658.09;;;9.25
74060;BMP280;62414;53.436;8.828;2022-12-20T05:39:10;100670.06;;;9.24
74060;BMP280;62414;53.436;8.828;2022-12-20T05:41:40;100660.13;;;9.21
74060;BMP280;62414;53.436;8.828;2022-12-20T05:44:06;100669.50;;;9.16
74060;BMP280;62414;53.436;8.828;2022-12-20T05:46:35;100668.31;;;9.17
74060;BMP280;62414;53.436;8.828;2022-12-20T05:49:06;100679.19;;;9.14
74060;BMP280;62414;53.436;8.828;2022-12-20T05:51:32;100669.56;;;9.13
74060;BMP280;62414;53.436;8.828;2022-12-20T05:54:04;100678.94;;;9.08
74060;BMP280;62414;53.436;8.828;2022-12-20T05:56:44;100680.50;;;9.06
74060;BMP280;62414;53.436;8.828;2022-12-20T05:59:11;100700.94;;;9.07
74060;BMP280;62414;53.436;8.828;2022-12-20T06:01:37;100691.75;;;9.04
74060;BMP280;62414;53.436;8.828;2022-12-20T06:04:03;100701.38;;;9.05
74060;BMP280;62414;53.436;8.828;2022-12-20T06:06:29;100694.31;;;9.11
74060;BMP280;62414;53.436;8.828;2022-12-20T06:08:55;100694.19;;;9.15
74060;BMP280;62414;53.436;8.828;2022-12-20T06:11:44;100693.13;;;9.29
74060;BMP280;62414;53.436;8.828;2022-12-20T06:14:12;100692.38;;;9.28
74060;BMP280;62414;53.436;8.828;2022-12-20T06:16:42;100698.00;;;9.34
74060;BMP280;62414;53.436;8.828;2022-12-20T06:19:09;100691.28;;;9.42
74060;BMP280;62414;53.436;8.828;2022-12-20T06:21:35;100690.09;;;9.43
74060;BMP280;62414;53.436;8.828;2022-12-20T06:24:01;100693.53;;;9.43
74060;BMP280;62414;53.436;8.828;2022-12-20T06:26:28;100695.84;;;9.45
74060;BMP280;62414;53.436;8.828;2022-12-20T06:28:54;100688.44;;;9.49
74060;BMP280;62414;53.436;8.828;2022-12-20T06:31:24;100687.69;;;9.48
74060;BMP280;62414;53.436;8.828;2022-12-20T06:33:52;100691.13;;;9.49
74060;BMP280;62414;53.436;8.828;2022-12-20T06:36:20;100685.72;;;9.49
74060;BMP280;62414;53.436;8.828;2022-12-20T06:38:46;100674.50;;;9.50
74060;BMP280;62414;53.436;8.828;2022-12-20T06:41:13;100677.88;;;9.55
74060;BMP280;62414;53.436;8.828;2022-12-20T06:43:38;100670.84;;;9.57
74060;BMP280;62414;53.436;8.828;2022-12-20T06:46:05;100673.47;;;9.61
74060;BMP280;62414;53.436;8.828;2022-12-20T06:48:31;100681.59;;;9.61
74060;BMP280;62414;53.436;8.828;2022-12-20T06:50:57;100672.72;;;9.60
74060;BMP280;62414;53.436;8.828;2022-12-20T06:53:25;100658.00;;;9.61
74060;BMP280;62414;53.436;8.828;2022-12-20T06:55:50;100664.91;;;9.62
74060;BMP280;62414;53.436;8.828;2022-12-20T06:58:16;100665.38;;;9.61
74060;BMP280;62414;53.436;8.828;2022-12-20T07:00:44;100672.19;;;9.65
74060;BMP280;62414;53.436;8.828;2022-12-20T07:03:11;100664.84;;;9.66
74060;BMP280;62414;53.436;8.828;2022-12-20T07:05:37;100652.84;;;9.67
74060;BMP280;62414;53.436;8.828;2022-12-20T07:08:04;100657.50;;;9.66
74060;BMP280;62414;53.436;8.828;2022-12-20T07:10:29;100657.50;;;9.66
74060;BMP280;62414;53.436;8.828;2022-12-20T07:12:55;100668.72;;;9.65
74060;BMP280;62414;53.436;8.828;2022-12-20T07:15:21;100664.78;;;9.69
74060;BMP280;62414;53.436;8.828;2022-12-20T07:17:46;100663.25;;;9.68
74060;BMP280;62414;53.436;8.828;2022-12-20T07:20:13;100666.72;;;9.69
74060;BMP280;62414;53.436;8.828;2022-12-20T07:22:38;100660.03;;;9.73
74060;BMP280;62414;53.436;8.828;2022-12-20T07:25:04;100676.25;;;9.73
74060;BMP280;62414;53.436;8.828;2022-12-20T07:27:30;100663.06;;;9.75
74060;BMP280;62414;53.436;8.828;2022-12-20T07:29:55;100658.00;;;9.77
74060;BMP280;62414;53.436;8.828;2022-12-20T07:32:21;100673.34;;;9.80
74060;BMP280;62414;53.436;8.828;2022-12-20T07:34:46;100659.75;;;9.84
74060;BMP280;62414;53.436;8.828;2022-12-20T07:37:13;100674.03;;;9.85
74060;BMP280;62414;53.436;8.828;2022-12-20T07:39:38;100677.38;;;9.89
74060;BMP280;62414;53.436;8.828;2022-12-20T07:42:04;100671.56;;;9.90
74060;BMP280;62414;53.436;8.828;2022-12-20T07:44:40;100670.50;;;9.88
74060;BMP280;62414;53.436;8.828;2022-12-20T07:47:05;100658.25;;;9.83
74060;BMP280;62414;53.436;8.828;2022-12-20T07:49:31;100653.66;;;9.80
74060;BMP280;62414;53.436;8.828;2022-12-20T07:51:58;100648.72;;;9.78
74060;BMP280;62414;53.436;8.828;2022-12-20T07:54:28;100651.41;;;9.78
74060;BMP280;62414;53.436;8.828;2022-12-20T07:56:57;100655.59;;;9.79
74060;BMP280;62414;53.436;8.828;2022-12-20T07:59:28;100654.13;;;9.78
74060;BMP280;62414;53.436;8.828;2022-12-20T08:01:55;100652.59;;;9.77
74060;BMP280;62414;53.436;8.828;2022-12-20T08:04:24;100652.25;;;9.75
74060;BMP280;62414;53.436;8.828;2022-12-20T08:06:53;100657.41;;;9.70
74060;BMP280;62414;53.436;8.828;2022-12-20T08:09:19;100652.19;;;9.79
74060;BMP280;62414;53.436;8.828;2022-12-20T08:11:47;100649.47;;;9.79
74060;BMP280;62414;53.436;8.828;2022-12-20T08:14:13;100640.91;;;9.80
74060;BMP280;62414;53.436;8.828;2022-12-20T08:16:39;100646.00;;;9.78
74060;BMP280;62414;53.436;8.828;2022-12-20T08:19:04;100651.84;;;9.77
74060;BMP280;62414;53.436;8.828;2022-12-20T08:21:30;100640.91;;;9.80
74060;BMP280;62414;53.436;8.828;2022-12-20T08:23:55;100640.16;;;9.80
74060;BMP280;62414;53.436;8.828;2022-12-20T08:26:21;100642.00;;;9.83
74060;BMP280;62414;53.436;8.828;2022-12-20T08:28:48;100636.59;;;9.83
74060;BMP280;62414;53.436;8.828;2022-12-20T08:31:14;100637.78;;;9.82
74060;BMP280;62414;53.436;8.828;2022-12-20T08:33:39;100630.84;;;9.81
74060;BMP280;62414;53.436;8.828;2022-12-20T08:36:07;100640.25;;;9.76
74060;BMP280;62414;53.436;8.828;2022-12-20T08:38:33;100651.91;;;9.73
74060;BMP280;62414;53.436;8.828;2022-12-20T08:41:01;100643.88;;;9.70
74060;BMP280;62414;53.436;8.828;2022-12-20T08:43:27;100645.09;;;9.69
74060;BMP280;62414;53.436;8.828;2022-12-20T08:45:54;100640.09;;;9.67
74060;BMP280;62414;53.436;8.828;2022-12-20T08:48:20;100639.06;;;9.61
74060;BMP280;62414;53.436;8.828;2022-12-20T08:50:45;100633.00;;;9.57
74060;BMP280;62414;53.436;8.828;2022-12-20T08:53:11;100633.97;;;9.50
74060;BMP280;62414;53.436;8.828;2022-12-20T08:55:36;100632.09;;;9.47
74060;BMP280;62414;53.436;8.828;2022-12-20T08:58:02;100627.22;;;9.42
74060;BMP280;62414;53.436;8.828;2022-12-20T09:00:27;100627.28;;;9.39
74060;BMP280;62414;53.436;8.828;2022-12-20T09:02:54;100630.41;;;9.37
74060;BMP280;62414;53.436;8.828;2022-12-20T09:05:20;100626.94;;;9.37
74060;BMP280;62414;53.436;8.828;2022-12-20T09:07:45;100629.31;;;9.35
74060;BMP280;62414;53.436;8.828;2022-12-20T09:10:11;100626.19;;;9.36
74060;BMP280;62414;53.436;8.828;2022-12-20T09:12:36;100633.53;;;9.36
74060;BMP280;62414;53.436;8.828;2022-12-20T09:15:02;100631.53;;;9.40
74060;BMP280;62414;53.436;8.828;2022-12-20T09:17:28;100636.94;;;9.40
74060;BMP280;62414;53.436;8.828;2022-12-20T09:19:54;100633.28;;;9.46
74060;BMP280;62414;53.436;8.828;2022-12-20T09:22:20;100634.03;;;9.47
74060;BMP280;62414;53.436;8.828;2022-12-20T09:24:45;100629.97;;;9.55
74060;BMP280;62414;53.436;8.828;2022-12-20T09:27:11;100622.97;;;9.58
74060;BMP280;62414;53.436;8.828;2022-12-20T09:29:36;100620.63;;;9.60
74060;BMP280;62414;53.436;8.828;2022-12-20T09:32:02;100612.81;;;9.62
74060;BMP280;62414;53.436;8.828;2022-12-20T09:34:27;100608.94;;;9.63
74060;BMP280;62414;53.436;8.828;2022-12-20T09:36:54;100608.00;;;9.69
74060;BMP280;62414;53.436;8.828;2022-12-20T09:39:19;100601.63;;;9.76
74060;BMP280;62414;53.436;8.828;2022-12-20T09:41:45;100582.53;;;9.83
74060;BMP280;62414;53.436;8.828;2022-12-20T09:44:13;100582.75;;;9.89
74060;BMP280;62414;53.436;8.828;2022-12-20T09:46:40;100568.63;;;9.97
74060;BMP280;62414;53.436;8.828;2022-12-20T09:49:10;100572.09;;;9.98
74060;BMP280;62414;53.436;8.828;2022-12-20T09:51:56;100573.72;;;9.95
74060;BMP280;62414;53.436;8.828;2022-12-20T09:54:31;100580.13;;;10.01
74060;BMP280;62414;53.436;8.828;2022-12-20T09:57:06;100581.94;;;10.04
74060;BMP280;62414;53.436;8.828;2022-12-20T09:59:39;100580.13;;;10.01
74060;BMP280;62414;53.436;8.828;2022-12-20T10:02:08;100571.69;;;10.12
74060;BMP280;62414;53.436;8.828;2022-12-20T10:04:34;100562.28;;;10.17
74060;BMP280;62414;53.436;8.828;2022-12-20T10:07:13;100560.53;;;10.23
74060;BMP280;62414;53.436;8.828;2022-12-20T10:09:57;100554.97;;;10.30
74060;BMP280;62414;53.436;8.828;2022-12-20T10:12:32;100556.38;;;10.34
74060;BMP280;62414;53.436;8.828;2022-12-20T10:15:12;100559.59;;;10.42
74060;BMP280;62414;53.436;8.828;2022-12-20T10:17:49;100548.56;;;10.49
74060;BMP280;62414;53.436;8.828;2022-12-20T10:20:27;100544.97;;;10.52
74060;BMP280;62414;53.436;8.828;2022-12-20T10:22:59;100539.69;;;10.61
74060;BMP280;62414;53.436;8.828;2022-12-20T10:25:30;100539.69;;;10.61
74060;BMP280;62414;53.436;8.828;2022-12-20T10:27:57;100535.03;;;10.62
74060;BMP280;62414;53.436;8.828;2022-12-20T10:30:31;100540.56;;;10.58
74060;BMP280;62414;53.436;8.828;2022-12-20T10:32:57;100537.41;;;10.60
74060;BMP280;62414;53.436;8.828;2022-12-20T10:35:24;100544.22;;;10.64
74060;BMP280;62414;53.436;8.828;2022-12-20T10:38:01;100539.13;;;10.66
74060;BMP280;62414;53.436;8.828;2022-12-20T10:40:29;100538.81;;;10.64
74060;BMP280;62414;53.436;8.828;2022-12-20T10:42:55;100534.25;;;10.61
74060;BMP280;62414;53.436;8.828;2022-12-20T10:45:29;100542.28;;;10.65
74060;BMP280;62414;53.436;8.828;2022-12-20T10:47:58;100543.38;;;10.67
74060;BMP280;62414;53.436;8.828;2022-12-20T10:50:24;100547.50;;;10.72
74060;BMP280;62414;53.436;8.828;2022-12-20T10:53:15;100548.44;;;10.78
74060;BMP280;62414;53.436;8.828;2022-12-20T10:55:43;100550.34;;;10.90
74060;BMP280;62414;53.436;8.828;2022-12-20T10:58:13;100549.28;;;11.01
74060;BMP280;62414;53.436;8.828;2022-12-20T11:00:39;100546.75;;;11.06
74060;BMP280;62414;53.436;8.828;2022-12-20T11:03:10;100566.22;;;11.14
74060;BMP280;62414;53.436;8.828;2022-12-20T11:05:36;100562.00;;;11.13
74060;BMP280;62414;53.436;8.828;2022-12-20T11:08:13;100554.63;;;11.13
74060;BMP280;62414;53.436;8.828;2022-12-20T11:10:39;100554.53;;;11.17
74060;BMP280;62414;53.436;8.828;2022-12-20T11:13:04;100558.19;;;11.23
74060;BMP280;62414;53.436;8.828;2022-12-20T11:15:31;100566.22;;;11.26
74060;BMP280;62414;53.436;8.828;2022-12-20T11:18:00;100561.56;;;11.27
74060;BMP280;62414;53.436;8.828;2022-12-20T11:20:34;100556.25;;;11.23
74060;BMP280;62414;53.436;8.828;2022-12-20T11:23:14;100554.88;;;11.19
74060;BMP280;62414;53.436;8.828;2022-12-20T11:25:51;100553.22;;;11.21
74060;BMP280;62414;53.436;8.828;2022-12-20T11:28:34;100551.38;;;11.18
74060;BMP280;62414;53.436;8.828;2022-12-20T11:31:08;100551.06;;;11.16
74060;BMP280;62414;53.436;8.828;2022-12-20T11:33:47;100545.66;;;11.16
74060;BMP280;62414;53.436;8.828;2022-12-20T11:36:21;100543.38;;;11.15
74060;BMP280;62414;53.436;8.828;2022-12-20T11:38:55;100542.09;;;11.07
74060;BMP280;62414;53.436;8.828;2022-12-20T11:41:30;100532.69;;;11.11
74060;BMP280;62414;53.436;8.828;2022-12-20T11:44:14;100520.44;;;11.07
74060;BMP280;62414;53.436;8.828;2022-12-20T11:47:03;100508.66;;;11.01
74060;BMP280;62414;53.436;8.828;2022-12-20T11:49:49;100506.16;;;10.93
74060;BMP280;62414;53.436;8.828;2022-12-20T11:52:24;100506.75;;;10.88
74060;BMP280;62414;53.436;8.828;2022-12-20T11:55:01;100508.38;;;10.86
74060;BMP280;62414;53.436;8.828;2022-12-20T11:57:31;100507.41;;;10.80
74060;BMP280;62414;53.436;8.828;2022-12-20T12:00:00;100505.41;;;10.80
74060;BMP280;62414;53.436;8.828;2022-12-20T12:02:30;100495.59;;;10.74
74060;BMP280;62414;53.436;8.828;2022-12-20T12:05:01;100491.19;;;10.67
74060;BMP280;62414;53.436;8.828;2022-12-20T12:07:30;100488.88;;;10.65
74060;BMP280;62414;53.436;8.828;2022-12-20T12:10:00;100472.34;;;10.51
74060;BMP280;62414;53.436;8.828;2022-12-20T12:12:28;100467.78;;;10.48
74060;BMP280;62414;53.436;8.828;2022-12-20T12:14:58;100449.00;;;10.44
74060;BMP280;62414;53.436;8.828;2022-12-20T12:17:28;100452.03;;;10.46
74060;BMP280;62414;53.436;8.828;2022-12-20T12:20:06;100447.81;;;10.45
74060;BMP280;62414;53.436;8.828;2022-12-20T12:22:34;100440.88;;;10.44
74060;BMP280;62414;53.436;8.828;2022-12-20T12:25:09;100435.78;;;10.46
74060;BMP280;62414;53.436;8.828;2022-12-20T12:27:35;100434.72;;;10.44
74060;BMP280;62414;53.436;8.828;2022-12-20T12:30:01;100427.00;;;10.42
74060;BMP280;62414;53.436;8.828;2022-12-20T12:32:31;100425.19;;;10.39
74060;BMP280;62414;53.436;8.828;2022-12-20T12:35:17;100425.31;;;10.35
74060;BMP280;62414;53.436;8.828;2022-12-20T12:37:54;100423.03;;;10.34
74060;BMP280;62414;53.436;8.828;2022-12-20T12:40:49;100421.19;;;10.31
74060;BMP280;62414;53.436;8.828;2022-12-20T12:43:40;100413.06;;;10.31
74060;BMP280;62414;53.436;8.828;2022-12-20T12:46:10;100422.81;;;10.28
74060;BMP280;62414;53.436;8.828;2022-12-20T12:48:39;100431.06;;;10.25
74060;BMP280;62414;53.436;8.828;2022-12-20T12:51:07;100431.81;;;10.25
74060;BMP280;62414;53.436;8.828;2022-12-20T12:53:36;100444.56;;;10.25
74060;BMP280;62414;53.436;8.828;2022-12-20T12:56:36;100454.31;;;10.22
74060;BMP280;62414;53.436;8.828;2022-12-20T13:02:49;100457.56;;;10.17
74060;BMP280;62414;53.436;8.828;2022-12-20T13:05:33;100462.88;;;10.21
74060;BMP280;62414;53.436;8.828;2022-12-20T13:07:59;100458.22;;;10.21
74060;BMP280;62414;53.436;8.828;2022-12-20T13:10:56;100452.06;;;10.21
74060;BMP280;62414;53.436;8.828;2022-12-20T13:13:23;100463.91;;;10.23
74060;BMP280;62414;53.436;8.828;2022-12-20T13:15:51;100456.28;;;10.22
74060;BMP280;62414;53.436;8.828;2022-12-20T13:18:22;100456.72;;;10.20
74060;BMP280;62414;53.436;8.828;2022-12-20T13:23:47;100451.94;;;10.24
74060;BMP280;62414;53.436;8.828;2022-12-20T13:26:50;100443.50;;;10.22
74060;BMP280;62414;53.436;8.828;2022-12-20T13:29:23;100445.88;;;10.20
74060;BMP280;62414;53.436;8.828;2022-12-20T13:31:48;100447.84;;;10.20
74060;BMP280;62414;53.436;8.828;2022-12-20T13:34:36;100444.34;;;10.19
74060;BMP280;62414;53.436;8.828;2022-12-20T13:37:02;100441.44;;;10.14
74060;BMP280;62414;53.436;8.828;2022-12-20T13:39:35;100440.56;;;10.17
74060;BMP280;62414;53.436;8.828;2022-12-20T13:42:16;100439.38;;;10.18
74060;BMP280;62414;53.436;8.828;2022-12-20T13:44:45;100444.47;;;10.16
74060;BMP280;62414;53.436;8.828;2022-12-20T13:47:25;100437.22;;;10.13
74060;BMP280;62414;53.436;8.828;2022-12-20T13:49:52;100439.94;;;10.13
74060;BMP280;62414;53.436;8.828;2022-12-20T13:52:26;100434.63;;;10.09
74060;BMP280;62414;53.436;8.828;2022-12-20T13:54:54;100430.06;;;10.06
74060;BMP280;62414;53.436;8.828;2022-12-20T13:57:26;100432.34;;;10.07
74060;BMP280;62414;53.436;8.828;2022-12-20T13:59:55;100419.13;;;10.09
74060;BMP280;62414;53.436;8.828;2022-12-20T14:02:23;100424.56;;;10.09
74060;BMP280;62414;53.436;8.828;2022-12-20T14:04:56;100427.25;;;10.09
74060;BMP280;62414;53.436;8.828;2022-12-20T14:07:22;100427.59;;;10.12
74060;BMP280;62414;53.436;8.828;2022-12-20T14:09:55;100433.44;;;10.10
74060;BMP280;62414;53.436;8.828;2022-12-20T14:12:20;100432.66;;;10.09
74060;BMP280;62414;53.436;8.828;2022-12-20T14:14:47;100440.78;;;10.09
74060;BMP280;62414;53.436;8.828;2022-12-20T14:17:16;100434.22;;;10.11
74060;BMP280;62414;53.436;8.828;2022-12-20T14:19:41;100434.97;;;10.11
74060;BMP280;62414;53.436;8.828;2022-12-20T14:22:07;100446.97;;;10.10